Time;durP1;ratioP1;P1;durP2;ratioP2;P2;SDS_P1;SDS_P2;PMS_P1;PMS_P2;Temp;Humidity;BMP_temperature;BMP_pressure;BME280_temperature;BME280_humidity;BME280_pressure;Samples;Min_cycle;Max_cycle;Signal;HPM_P1;HPM_P2
2021/10/06 00:05:41;;;;;;;1.37;0.73;;;9.80;99.90;;;;;;20632157;28;20117;-79
2021/10/06 00:15:43;;;;;;;5.17;1.27;;;9.80;99.90;;;;;;20606309;28;20066;-78
2021/10/06 00:25:44;;;;;;;1.73;0.82;;;9.80;99.90;;;;;;20622194;28;20077;-79
2021/10/06 00:35:45;;;;;;;2.83;0.80;;;9.90;99.90;;;;;;20633563;28;20035;-79
2021/10/06 00:45:46;;;;;;;4.87;1.07;;;9.60;99.90;;;;;;20638212;28;20379;-79
2021/10/06 00:55:46;;;;;;;7.90;0.77;;;9.50;99.90;;;;;;20640770;28;20132;-78
2021/10/06 01:05:49;;;;;;;2.17;0.70;;;9.30;99.90;;;;;;20639900;28;20047;-79
2021/10/06 01:15:52;;;;;;;3.20;0.65;;;9.10;99.90;;;;;;20627915;28;20047;-79
2021/10/06 01:25:52;;;;;;;2.15;0.80;;;9.20;99.90;;;;;;20631978;28;20027;-80
2021/10/06 01:35:53;;;;;;;3.80;0.90;;;9.20;99.90;;;;;;20643558;28;20034;-79
2021/10/06 01:45:54;;;;;;;2.47;0.77;;;9.30;99.90;;;;;;20627681;28;20062;-79
2021/10/06 01:55:55;;;;;;;2.10;0.60;;;9.40;99.90;;;;;;20644773;28;20494;-79
2021/10/06 02:05:56;;;;;;;1.20;0.60;;;9.40;99.90;;;;;;20622057;28;20062;-80
2021/10/06 02:15:57;;;;;;;3.60;0.90;;;9.40;99.90;;;;;;20638352;28;20027;-80
2021/10/06 02:25:58;;;;;;;3.17;0.90;;;9.40;99.90;;;;;;20653218;28;20485;-80
2021/10/06 02:35:59;;;;;;;1.67;0.73;;;9.50;99.90;;;;;;20634356;28;20528;-79
2021/10/06 02:46:00;;;;;;;2.90;0.80;;;9.50;99.90;;;;;;20599383;28;20035;-79
2021/10/06 02:56:01;;;;;;;5.80;1.20;;;9.40;99.90;;;;;;20628795;28;20026;-79
2021/10/06 03:06:02;;;;;;;3.67;1.53;;;9.30;99.90;;;;;;20611488;28;20047;-81
2021/10/06 03:16:03;;;;;;;3.38;1.45;;;9.30;99.90;;;;;;20601385;28;20122;-81
2021/10/06 03:26:04;;;;;;;1.33;0.87;;;9.30;99.90;;;;;;20626746;28;20047;-79
2021/10/06 03:36:05;;;;;;;6.23;2.07;;;9.40;99.90;;;;;;20630032;28;20027;-80
2021/10/06 03:46:06;;;;;;;5.38;2.00;;;9.40;99.90;;;;;;20632151;28;20031;-78
2021/10/06 03:56:07;;;;;;;5.23;2.07;;;9.30;99.90;;;;;;20617507;28;20037;-79
2021/10/06 04:06:08;;;;;;;7.50;2.10;;;9.30;99.90;;;;;;20582696;28;20050;-79
2021/10/06 04:16:09;;;;;;;6.90;1.90;;;9.30;99.90;;;;;;20599224;28;20046;-79
2021/10/06 04:26:09;;;;;;;6.00;2.40;;;9.30;99.90;;;;;;20595644;28;20126;-79
2021/10/06 04:36:10;;;;;;;7.07;2.10;;;9.20;99.90;;;;;;20601762;28;20568;-79
2021/10/06 04:46:11;;;;;;;2.30;1.70;;;9.20;99.90;;;;;;20600011;28;20037;-78
2021/10/06 04:56:12;;;;;;;2.27;1.33;;;9.10;99.90;;;;;;20598238;28;20635;-78
2021/10/06 05:06:13;;;;;;;1.47;0.80;;;9.10;99.90;;;;;;20594603;28;20038;-78
2021/10/06 05:16:13;;;;;;;4.80;0.60;;;9.10;99.90;;;;;;20604597;28;20030;-78
2021/10/06 05:26:14;;;;;;;2.43;0.80;;;9.00;99.90;;;;;;20604317;28;20033;-79
2021/10/06 05:36:16;;;;;;;2.07;0.70;;;8.90;99.90;;;;;;20622132;28;20035;-79
2021/10/06 05:46:17;;;;;;;3.78;0.75;;;8.80;99.90;;;;;;20609083;28;20058;-79
2021/10/06 05:56:18;;;;;;;3.33;0.90;;;8.90;99.90;;;;;;20611509;28;20101;-78
2021/10/06 06:06:19;;;;;;;3.20;1.50;;;8.80;99.90;;;;;;20650606;28;20054;-79
2021/10/06 06:16:20;;;;;;;5.20;1.00;;;8.80;99.90;;;;;;20648491;28;20058;-79
2021/10/06 06:26:21;;;;;;;3.47;1.23;;;9.00;99.90;;;;;;20625468;28;20039;-79
2021/10/06 06:36:22;;;;;;;5.88;1.52;;;9.70;99.90;;;;;;20617725;28;20042;-78
2021/10/06 06:46:23;;;;;;;5.53;1.13;;;9.60;99.90;;;;;;20610758;28;20038;-78
2021/10/06 06:56:24;;;;;;;6.63;1.53;;;9.50;99.90;;;;;;20633919;28;20033;-78
2021/10/06 07:06:27;;;;;;;6.03;1.60;;;9.40;99.90;;;;;;20618914;28;20045;-80
2021/10/06 07:16:28;;;;;;;4.35;1.33;;;10.30;99.90;;;;;;20630922;28;20026;-80
2021/10/06 07:26:29;;;;;;;6.10;0.90;;;11.20;99.90;;;;;;20621658;28;20065;-80
2021/10/06 07:36:30;;;;;;;7.57;1.27;;;11.30;99.90;;;;;;20632712;28;20494;-79
2021/10/06 07:46:30;;;;;;;3.07;0.90;;;10.90;99.90;;;;;;20631804;28;20049;-79
2021/10/06 07:56:32;;;;;;;6.13;1.30;;;11.50;99.90;;;;;;20630982;28;20034;-79
2021/10/06 08:06:32;;;;;;;8.80;1.30;;;11.40;99.90;;;;;;20688094;28;20042;-79
2021/10/06 08:16:33;;;;;;;10.27;1.70;;;12.60;99.90;;;;;;20704392;28;20061;-79
2021/10/06 08:26:34;;;;;;;10.15;1.27;;;13.00;99.90;;;;;;20687313;28;20030;-79
2021/10/06 08:36:37;;;;;;;9.57;1.23;;;12.00;99.90;;;;;;20677332;28;20153;-78
2021/10/06 08:46:38;;;;;;;4.97;1.27;;;12.10;99.90;;;;;;20650058;28;20527;-78
2021/10/06 08:56:39;;;;;;;10.23;1.37;;;13.80;99.90;;;;;;20647385;28;20062;-79
2021/10/06 09:06:44;;;;;;;9.20;1.40;;;14.50;99.90;;;;;;20664363;28;20517;-76
2021/10/06 09:16:47;;;;;;;6.95;1.30;;;12.30;99.90;;;;;;20670958;28;20038;-77
2021/10/06 09:27:03;;;;;;;6.68;1.20;;;12.20;99.90;;;;;;20670795;28;20114;-80
2021/10/06 09:37:22;;;;;;;12.68;0.98;;;11.50;99.90;;;;;;20692889;28;20037;-80
2021/10/06 09:47:24;;;;;;;6.00;0.77;;;11.50;99.90;;;;;;20700317;28;20034;-79
2021/10/06 09:57:30;;;;;;;10.77;1.27;;;11.90;99.90;;;;;;20699136;28;20030;-80
2021/10/06 10:07:32;;;;;;;6.43;0.88;;;11.80;99.90;;;;;;20690043;28;20089;-79
2021/10/06 10:17:32;;;;;;;14.47;1.10;;;12.00;99.90;;;;;;20684542;28;20077;-79
2021/10/06 10:27:33;;;;;;;6.73;1.00;;;13.70;99.90;;;;;;20685334;28;20023;-79
2021/10/06 10:37:49;;;;;;;11.93;1.00;;;14.80;99.90;;;;;;20666974;28;20090;-80
2021/10/06 10:47:57;;;;;;;4.65;0.40;;;13.90;99.90;;;;;;20699161;28;20521;-80
2021/10/06 10:58:37;;;;;;;4.82;1.15;;;14.40;99.90;;;;;;20701259;28;20478;-78
2021/10/06 11:08:39;;;;;;;7.18;1.08;;;15.40;99.90;;;;;;20690225;28;20105;-80
2021/10/06 11:18:42;;;;;;;5.07;0.80;;;14.70;99.90;;;;;;20706822;28;20259;-80
2021/10/06 11:28:49;;;;;;;6.85;1.27;;;13.20;99.90;;;;;;20672530;28;20031;-79
2021/10/06 11:38:55;;;;;;;7.47;1.05;;;12.90;99.90;;;;;;20712749;28;20037;-80
2021/10/06 11:48:56;;;;;;;6.45;0.77;;;12.40;99.90;;;;;;20713224;28;20054;-79
2021/10/06 11:59:06;;;;;;;3.40;0.40;;;11.20;99.90;;;;;;20718135;28;20041;-79
2021/10/06 12:09:09;;;;;;;3.63;0.73;;;11.40;99.90;;;;;;20730520;28;20046;-80
2021/10/06 12:19:10;;;;;;;3.05;1.00;;;13.20;99.90;;;;;;20728663;28;20045;-80
2021/10/06 12:29:11;;;;;;;5.67;0.57;;;14.30;99.90;;;;;;20721385;28;20030;-80
2021/10/06 12:39:18;;;;;;;5.53;0.67;;;15.00;99.90;;;;;;20717849;28;20045;-80
2021/10/06 12:49:19;;;;;;;1.75;0.65;;;15.00;99.90;;;;;;20689199;28;20062;-78
2021/10/06 12:59:29;;;;;;;0.90;0.50;;;15.50;99.90;;;;;;20712316;28;20080;-80
2021/10/06 13:09:30;;;;;;;4.97;0.70;;;15.60;99.90;;;;;;20740251;28;20097;-79
2021/10/06 13:19:31;;;;;;;2.63;0.73;;;14.90;99.90;;;;;;20756684;28;20026;-79
2021/10/06 13:29:32;;;;;;;5.60;0.63;;;15.70;99.90;;;;;;20786662;28;20045;-77
2021/10/06 13:39:33;;;;;;;2.13;1.17;;;15.00;99.90;;;;;;20736722;28;20106;-80
2021/10/06 13:49:34;;;;;;;2.90;0.50;;;14.50;99.90;;;;;;20689766;28;20086;-78
2021/10/06 13:59:36;;;;;;;5.50;0.97;;;13.40;99.90;;;;;;20683627;28;20027;-77
2021/10/06 14:09:37;;;;;;;2.42;1.15;;;13.60;99.90;;;;;;20643147;28;20026;-78
2021/10/06 14:19:38;;;;;;;1.77;0.80;;;14.00;99.90;;;;;;20654593;28;20030;-78
2021/10/06 14:29:39;;;;;;;4.50;0.83;;;13.60;99.90;;;;;;20669020;28;20034;-78
2021/10/06 14:39:39;;;;;;;4.07;0.80;;;14.60;99.90;;;;;;20655728;28;20038;-79
2021/10/06 14:49:40;;;;;;;2.07;0.50;;;13.60;99.90;;;;;;20617305;28;20577;-78
2021/10/06 14:59:42;;;;;;;1.97;0.60;;;13.40;99.90;;;;;;20596750;28;20053;-77
2021/10/06 15:09:44;;;;;;;2.35;0.65;;;13.10;99.90;;;;;;20609693;28;20034;-77
2021/10/06 15:19:45;;;;;;;2.38;0.55;;;13.10;99.90;;;;;;20610108;28;20041;-77
2021/10/06 15:29:48;;;;;;;2.73;0.60;;;13.80;99.90;;;;;;20592238;28;20030;-78
2021/10/06 15:39:49;;;;;;;5.43;0.88;;;13.90;99.90;;;;;;20621840;28;20046;-77
2021/10/06 15:49:50;;;;;;;4.03;1.00;;;13.30;99.90;;;;;;20637297;28;20073;-78
2021/10/06 15:59:51;;;;;;;2.37;0.87;;;13.00;99.90;;;;;;20654722;28;20037;-79
2021/10/06 16:09:51;;;;;;;5.00;0.67;;;12.60;99.90;;;;;;20653593;28;20578;-78
2021/10/06 16:19:53;;;;;;;9.43;0.80;;;12.30;99.90;;;;;;20655468;28;20117;-78
2021/10/06 16:29:54;;;;;;;;;;;12.20;99.90;;;;;;20652782;28;20553;-78
2021/10/06 16:39:55;;;;;;;;;;;12.00;99.90;;;;;;20628575;28;19913;-79
2021/10/06 16:49:55;;;;;;;;;;;11.90;99.90;;;;;;20646059;28;19928;-78
2021/10/06 16:59:58;;;;;;;;;;;11.80;99.90;;;;;;20642450;28;19960;-77
2021/10/06 17:09:58;;;;;;;;;;;11.50;99.90;;;;;;20647586;28;19924;-78
2021/10/06 17:19:59;;;;;;;;;;;11.30;99.90;;;;;;20644335;28;20299;-77
2021/10/06 17:30:00;;;;;;;;;;;11.30;99.90;;;;;;20640007;28;20675;-78
2021/10/06 17:40:01;;;;;;;;;;;11.10;99.90;;;;;;20626924;28;19914;-78
2021/10/06 17:50:03;;;;;;;;;;;11.00;99.90;;;;;;20651151;28;20394;-78
2021/10/06 18:00:05;;;;;;;;;;;10.90;99.90;;;;;;20664109;28;19960;-78
2021/10/06 18:10:07;;;;;;;;;;;10.70;99.90;;;;;;20665115;28;19917;-78
2021/10/06 18:20:08;;;;;;;;;;;10.40;99.90;;;;;;20661527;28;19913;-78
2021/10/06 18:30:10;;;;;;;;;;;10.40;99.90;;;;;;20605383;28;19988;-78
2021/10/06 18:40:11;;;;;;;;;;;10.50;99.90;;;;;;20648052;28;19957;-78
2021/10/06 18:50:12;;;;;;;;;;;10.00;99.90;;;;;;20644146;28;19921;-78
2021/10/06 19:00:19;;;;;;;;;;;9.70;99.90;;;;;;20626385;28;19941;-78
2021/10/06 19:10:20;;;;;;;;;;;9.60;99.90;;;;;;20627559;28;20013;-78
2021/10/06 19:20:21;;;;;;;;;;;9.50;99.90;;;;;;20618837;28;19910;-79
2021/10/06 19:30:22;;;;;;;;;;;9.50;99.90;;;;;;20647052;28;19914;-80
2021/10/06 19:40:23;;;;;;;;;;;9.50;99.90;;;;;;20639207;28;19910;-79
2021/10/06 19:50:24;;;;;;;;;;;9.50;99.90;;;;;;20628325;28;19984;-78
2021/10/06 20:00:25;;;;;;;;;;;9.50;99.90;;;;;;20626726;28;19937;-79
2021/10/06 20:10:26;;;;;;;;;;;9.50;99.90;;;;;;20638331;28;20377;-78
2021/10/06 20:20:27;;;;;;;;;;;9.40;99.90;;;;;;20618121;28;19911;-80
2021/10/06 20:30:28;;;;;;;;;;;9.20;99.90;;;;;;20632341;28;19937;-79
2021/10/06 20:40:30;;;;;;;;;;;9.10;99.90;;;;;;20632536;28;19910;-80
2021/10/06 20:50:34;;;;;;;;;;;9.10;99.90;;;;;;20629911;28;19941;-79
2021/10/06 21:00:36;;;;;;;;;;;9.20;99.90;;;;;;20670456;28;20291;-78
2021/10/06 21:10:37;;;;;;;;;;;9.30;99.90;;;;;;20666703;28;19914;-78
2021/10/06 21:20:38;;;;;;;;;;;9.40;99.90;;;;;;20665744;28;19909;-78
2021/10/06 21:30:39;;;;;;;;;;;9.20;99.90;;;;;;20646906;28;19917;-78
2021/10/06 21:40:40;;;;;;;;;;;8.90;99.90;;;;;;20665757;28;20399;-78
2021/10/06 21:50:40;;;;;;;;;;;9.00;99.90;;;;;;20666182;28;20370;-78
2021/10/06 22:00:41;;;;;;;;;;;9.10;99.90;;;;;;20631775;28;19910;-78
2021/10/06 22:10:42;;;;;;;;;;;9.30;99.90;;;;;;20666704;28;19913;-79
2021/10/06 22:20:43;;;;;;;;;;;9.30;99.90;;;;;;20648645;28;19913;-79
2021/10/06 22:30:44;;;;;;;;;;;9.30;99.90;;;;;;20664296;28;19914;-78
2021/10/06 22:40:44;;;;;;;;;;;9.30;99.90;;;;;;20677399;28;19910;-78
2021/10/06 22:50:45;;;;;;;;;;;9.30;99.90;;;;;;20680310;28;19913;-78
2021/10/06 23:00:46;;;;;;;;;;;9.20;99.90;;;;;;20678179;28;20332;-78
2021/10/06 23:10:47;;;;;;;;;;;9.30;99.90;;;;;;20678118;28;19921;-78
2021/10/06 23:20:51;;;;;;;;;;;9.30;99.90;;;;;;20660462;28;19910;-79
2021/10/06 23:30:52;;;;;;;;;;;9.30;99.90;;;;;;20658941;28;19913;-79
2021/10/06 23:40:52;;;;;;;;;;;9.30;99.90;;;;;;20674803;28;19909;-78
2021/10/06 23:50:53;;;;;;;;;;;9.30;99.90;;;;;;20674277;28;19913;-78
